Weather at St Louis Lambert International Airport

Public forecast

Using degrees Fahrenheit for public forecast. Weather courtesy of forecast.io.

Current aviation weather report (METAR) for St Louis Lambert International Airport

Retrieved 2021/10/22 05:51 UTC (1 hour ago):

KSTL 220551Z 30004KT 10SM BKN023 OVC028 11/07 A3012 RMK AO2 SLP199 T01060067 10128 20100 401940100 58003

Aviation forecast (TAF) for St Louis Lambert International Airport

Forecast is more than 6 hours old.

Retrieved 2021-10-22 00:24 UTC (7 hours ago):

TAF KSTL 212321Z 2200/2306 31008KT P6SM OVC035 FM220800 31006KT P6SM OVC025 FM221400 29006KT P6SM BKN045